createdAt,value
2022-12-20T00:00:51.846Z,99.90
2022-12-20T00:03:18.945Z,99.90
2022-12-20T00:05:45.574Z,99.90
2022-12-20T00:08:12.301Z,99.90
2022-12-20T00:10:39.730Z,99.90
2022-12-20T00:13:06.567Z,99.90
2022-12-20T00:15:33.295Z,99.90
2022-12-20T00:18:00.443Z,99.90
2022-12-20T00:20:27.983Z,99.90
2022-12-20T00:22:54.796Z,99.90
2022-12-20T00:25:21.820Z,99.90
2022-12-20T00:27:48.625Z,99.90
2022-12-20T00:30:15.865Z,99.90
2022-12-20T00:32:42.478Z,99.90
2022-12-20T00:35:09.235Z,99.90
2022-12-20T00:37:35.910Z,99.90
2022-12-20T00:40:03.677Z,99.90
2022-12-20T00:42:30.416Z,99.90
2022-12-20T00:44:56.983Z,99.90
2022-12-20T00:47:23.621Z,99.90
2022-12-20T00:49:50.339Z,99.90
2022-12-20T00:52:17.069Z,99.90
2022-12-20T00:54:43.804Z,99.90
2022-12-20T00:57:10.392Z,99.90
2022-12-20T00:59:36.981Z,99.90
2022-12-20T01:02:03.748Z,99.90
2022-12-20T01:04:30.549Z,99.90
2022-12-20T01:06:57.159Z,99.90
2022-12-20T01:09:23.756Z,99.90
2022-12-20T01:11:50.517Z,99.90
2022-12-20T01:14:17.222Z,99.90
2022-12-20T01:16:45.102Z,99.90
2022-12-20T01:19:13.349Z,99.90
2022-12-20T01:21:44.319Z,99.90
2022-12-20T01:24:14.855Z,99.90
2022-12-20T01:26:41.439Z,99.90
2022-12-20T01:29:08.014Z,99.90
2022-12-20T01:31:34.757Z,99.90
2022-12-20T01:34:01.782Z,99.90
2022-12-20T01:36:29.953Z,99.90
2022-12-20T01:39:00.836Z,99.90
2022-12-20T01:41:28.010Z,99.90
2022-12-20T01:43:56.062Z,99.90
2022-12-20T01:46:24.564Z,99.90
2022-12-20T01:48:54.162Z,99.90
2022-12-20T01:51:21.124Z,99.90
2022-12-20T01:53:48.898Z,99.90
2022-12-20T01:56:15.551Z,99.90
2022-12-20T01:58:42.227Z,99.90
2022-12-20T02:01:08.876Z,99.90
2022-12-20T02:03:35.837Z,99.90
2022-12-20T02:06:23.476Z,99.90
2022-12-20T02:08:51.308Z,99.90
2022-12-20T02:11:17.934Z,99.90
2022-12-20T02:14:07.910Z,99.90
2022-12-20T02:16:56.580Z,99.90
2022-12-20T02:19:42.003Z,99.90
2022-12-20T02:22:08.876Z,99.90
2022-12-20T02:24:54.357Z,99.90
2022-12-20T02:27:32.977Z,99.90
2022-12-20T02:29:59.541Z,99.90
2022-12-20T02:32:33.071Z,99.90
2022-12-20T02:34:59.786Z,99.90
2022-12-20T02:37:26.525Z,99.90
2022-12-20T02:39:53.323Z,99.90
2022-12-20T02:42:21.184Z,99.90
2022-12-20T02:45:08.639Z,99.90
2022-12-20T02:47:42.564Z,99.90
2022-12-20T02:50:10.069Z,99.90
2022-12-20T02:52:36.913Z,99.90
2022-12-20T02:55:04.492Z,99.90
2022-12-20T02:57:54.672Z,99.90
2022-12-20T03:00:24.597Z,99.90
2022-12-20T03:03:10.704Z,99.90
2022-12-20T03:05:44.498Z,99.90
2022-12-20T03:08:11.563Z,99.90
2022-12-20T03:10:38.593Z,99.90
2022-12-20T03:13:05.308Z,99.90
2022-12-20T03:15:31.883Z,99.90
2022-12-20T03:17:58.603Z,99.90
2022-12-20T03:20:25.204Z,99.90
2022-12-20T03:22:51.774Z,99.90
2022-12-20T03:25:18.525Z,99.90
2022-12-20T03:27:45.091Z,99.90
2022-12-20T03:30:12.119Z,99.90
2022-12-20T03:32:38.702Z,99.90
2022-12-20T03:35:05.519Z,99.90
2022-12-20T03:37:32.309Z,99.90
2022-12-20T03:39:58.878Z,99.90
2022-12-20T03:42:25.531Z,99.90
2022-12-20T03:44:52.579Z,99.90
2022-12-20T03:47:19.393Z,99.90
2022-12-20T03:49:46.047Z,99.90
2022-12-20T03:52:13.381Z,99.90
2022-12-20T03:54:40.074Z,99.90
2022-12-20T03:57:06.768Z,99.90
2022-12-20T03:59:33.535Z,99.90
2022-12-20T04:02:00.202Z,99.90
2022-12-20T04:04:26.936Z,99.90
2022-12-20T04:06:53.546Z,99.90
2022-12-20T04:09:20.170Z,99.90
2022-12-20T04:11:46.744Z,99.90
2022-12-20T04:14:13.412Z,99.90
2022-12-20T04:16:40.091Z,99.90
2022-12-20T04:19:06.863Z,99.90
2022-12-20T04:21:34.433Z,99.90
2022-12-20T04:24:01.832Z,99.90
2022-12-20T04:26:28.867Z,99.90
2022-12-20T04:28:55.608Z,99.90
2022-12-20T04:31:24.381Z,99.90
2022-12-20T04:33:51.418Z,99.90
2022-12-20T04:36:18.078Z,99.90
2022-12-20T04:38:44.689Z,99.90
2022-12-20T04:41:22.213Z,99.90
2022-12-20T04:43:53.196Z,99.90
2022-12-20T04:46:19.848Z,99.90
2022-12-20T04:49:01.967Z,99.90
2022-12-20T04:51:28.665Z,99.90
2022-12-20T04:53:55.751Z,99.90
2022-12-20T04:56:29.015Z,99.90
2022-12-20T04:58:56.718Z,99.90
2022-12-20T05:01:23.837Z,99.90
2022-12-20T05:03:50.961Z,99.90
2022-12-20T05:06:17.908Z,99.90
2022-12-20T05:08:44.708Z,99.90
2022-12-20T05:11:11.645Z,99.90
2022-12-20T05:13:38.347Z,99.90
2022-12-20T05:16:05.336Z,99.90
2022-12-20T05:18:32.228Z,99.90
2022-12-20T05:21:34.822Z,99.90
2022-12-20T05:24:20.186Z,99.90
2022-12-20T05:26:46.873Z,99.90
2022-12-20T05:29:13.517Z,99.90
2022-12-20T05:31:40.155Z,99.90
2022-12-20T05:34:06.791Z,99.90
2022-12-20T05:36:33.406Z,99.90
2022-12-20T05:39:04.305Z,99.90
2022-12-20T05:41:31.631Z,99.90
2022-12-20T05:43:58.466Z,99.90
2022-12-20T05:46:25.163Z,99.90
2022-12-20T05:48:52.437Z,99.90
2022-12-20T05:51:19.046Z,99.90
2022-12-20T05:53:45.760Z,99.90
2022-12-20T05:56:12.337Z,99.90
2022-12-20T05:58:39.009Z,99.90
2022-12-20T06:01:06.703Z,99.90
2022-12-20T06:03:33.378Z,99.90
2022-12-20T06:06:00.108Z,99.90
2022-12-20T06:08:27.213Z,99.90
2022-12-20T06:10:53.923Z,99.90
2022-12-20T06:13:20.841Z,99.90
2022-12-20T06:15:47.471Z,99.90
2022-12-20T06:18:14.118Z,99.90
2022-12-20T06:20:40.853Z,99.90
2022-12-20T06:23:07.606Z,99.90
2022-12-20T06:25:34.302Z,99.90
2022-12-20T06:28:01.527Z,99.90
2022-12-20T06:30:33.687Z,99.90
2022-12-20T06:33:01.236Z,99.90
2022-12-20T06:35:28.065Z,99.90
2022-12-20T06:37:54.686Z,99.90
2022-12-20T06:40:21.280Z,99.90
2022-12-20T06:42:48.119Z,99.90
2022-12-20T06:45:14.708Z,99.90
2022-12-20T06:47:41.449Z,99.90
2022-12-20T06:50:08.289Z,99.90
2022-12-20T06:52:34.993Z,99.90
2022-12-20T06:55:01.572Z,99.90
2022-12-20T06:57:28.216Z,99.90
2022-12-20T06:59:55.027Z,99.90
2022-12-20T07:02:21.843Z,99.90
2022-12-20T07:04:48.496Z,99.90
2022-12-20T07:07:15.116Z,99.90
2022-12-20T07:09:42.689Z,99.90
2022-12-20T07:12:09.944Z,99.90
2022-12-20T07:14:36.712Z,99.90
2022-12-20T07:17:04.707Z,99.90
2022-12-20T07:19:31.461Z,99.90
2022-12-20T07:21:59.241Z,99.90
2022-12-20T07:24:26.147Z,99.90
2022-12-20T07:26:52.934Z,99.90
2022-12-20T07:29:19.576Z,99.90
2022-12-20T07:31:46.549Z,99.90
2022-12-20T07:34:13.331Z,99.90
2022-12-20T07:36:39.955Z,99.90
2022-12-20T07:39:06.653Z,99.90
2022-12-20T07:41:33.347Z,99.90
2022-12-20T07:44:00.024Z,99.90
2022-12-20T07:46:26.954Z,99.90
2022-12-20T07:48:54.971Z,99.90
2022-12-20T07:51:22.944Z,99.90
2022-12-20T07:53:52.668Z,99.90
2022-12-20T07:56:21.086Z,99.90
2022-12-20T07:58:49.818Z,99.90
2022-12-20T08:01:16.530Z,99.90
2022-12-20T08:03:49.804Z,99.90
2022-12-20T08:06:17.452Z,99.90
2022-12-20T08:08:46.689Z,99.90
2022-12-20T08:11:13.849Z,99.90
2022-12-20T08:13:45.989Z,99.90
2022-12-20T08:16:13.276Z,99.90
2022-12-20T08:18:39.952Z,99.90
2022-12-20T08:21:06.650Z,99.90
2022-12-20T08:23:33.247Z,99.90
2022-12-20T08:26:03.098Z,99.90
2022-12-20T08:28:29.710Z,99.90
2022-12-20T08:31:02.994Z,99.90
2022-12-20T08:33:29.954Z,99.90
2022-12-20T08:35:57.255Z,99.90
2022-12-20T08:38:25.737Z,99.90
2022-12-20T08:40:52.415Z,99.90
2022-12-20T08:43:18.993Z,99.90
2022-12-20T08:45:45.638Z,99.90
2022-12-20T08:48:12.309Z,99.90
2022-12-20T08:50:38.969Z,99.90
2022-12-20T08:53:05.567Z,99.90
2022-12-20T08:55:32.164Z,99.90
2022-12-20T08:57:58.792Z,99.90
2022-12-20T09:00:25.398Z,99.90
2022-12-20T09:02:55.050Z,99.90
2022-12-20T09:05:21.759Z,99.90
2022-12-20T09:07:48.470Z,99.90
2022-12-20T09:10:15.119Z,99.90
2022-12-20T09:12:41.698Z,99.90
2022-12-20T09:15:08.741Z,99.90
2022-12-20T09:17:35.330Z,99.90
2022-12-20T09:20:02.075Z,99.90
2022-12-20T09:22:29.678Z,99.90
2022-12-20T09:24:56.794Z,99.90
2022-12-20T09:27:23.415Z,99.90
2022-12-20T09:29:49.985Z,99.90
2022-12-20T09:32:16.552Z,99.90
2022-12-20T09:34:43.147Z,99.90
2022-12-20T09:37:09.735Z,99.90
2022-12-20T09:39:36.376Z,99.90
2022-12-20T09:42:06.926Z,99.90
2022-12-20T09:44:36.011Z,99.90
2022-12-20T09:47:19.945Z,99.90
2022-12-20T09:49:49.327Z,99.90
2022-12-20T09:52:15.923Z,99.90
2022-12-20T09:55:01.227Z,99.90
2022-12-20T09:57:33.054Z,99.90
2022-12-20T09:59:59.659Z,99.90
2022-12-20T10:02:55.549Z,99.90
2022-12-20T10:05:17.886Z,99.90
2022-12-20T10:07:59.253Z,99.90
2022-12-20T10:10:45.619Z,99.90
2022-12-20T10:13:30.563Z,99.90
2022-12-20T10:16:00.386Z,99.90
2022-12-20T10:18:33.203Z,99.90
2022-12-20T10:21:04.218Z,99.90
2022-12-20T10:23:39.881Z,99.90
2022-12-20T10:26:10.888Z,99.90
2022-12-20T10:28:38.091Z,99.90
2022-12-20T10:31:11.791Z,99.90
2022-12-20T10:33:38.557Z,99.90
2022-12-20T10:36:37.577Z,99.90
2022-12-20T10:39:06.052Z,99.90
2022-12-20T10:41:44.677Z,99.90
2022-12-20T10:44:23.892Z,99.90
2022-12-20T10:46:55.527Z,99.90
2022-12-20T10:49:25.303Z,99.70
2022-12-20T10:51:52.701Z,99.70
2022-12-20T10:54:35.205Z,99.80
2022-12-20T10:57:17.157Z,99.30
2022-12-20T10:59:45.828Z,99.80
2022-12-20T11:02:21.806Z,99.60
2022-12-20T11:05:15.729Z,99.60
2022-12-20T11:08:34.055Z,99.80
2022-12-20T11:10:40.217Z,99.90
2022-12-20T11:13:06.929Z,99.40
2022-12-20T11:15:35.204Z,99.50
2022-12-20T11:18:07.147Z,99.10
2022-12-20T11:20:52.730Z,98.90
2022-12-20T11:23:30.252Z,98.40
2022-12-20T11:26:02.792Z,98.20
2022-12-20T11:28:29.555Z,98.00
2022-12-20T11:31:14.986Z,98.90
2022-12-20T11:34:00.433Z,98.10
2022-12-20T11:36:45.558Z,98.60
2022-12-20T11:39:24.698Z,97.60
2022-12-20T11:42:11.971Z,97.30
2022-12-20T11:44:50.121Z,97.00
2022-12-20T11:47:32.586Z,97.50
2022-12-20T11:50:04.202Z,97.10
2022-12-20T11:52:39.637Z,96.60
2022-12-20T11:55:26.563Z,96.30
2022-12-20T12:00:48.517Z,96.10
2022-12-20T12:03:18.925Z,96.60
2022-12-20T12:05:47.324Z,96.30
2022-12-20T12:08:19.084Z,95.50
2022-12-20T12:10:51.766Z,95.70
2022-12-20T12:13:23.603Z,96.40
2022-12-20T12:16:10.783Z,96.80
2022-12-20T12:18:38.417Z,95.60
2022-12-20T12:21:09.518Z,95.80
2022-12-20T12:23:36.637Z,96.00
2022-12-20T12:26:07.201Z,97.20
2022-12-20T12:28:34.375Z,96.30
2022-12-20T12:31:04.872Z,96.40
2022-12-20T12:33:38.454Z,96.10
2022-12-20T12:36:20.785Z,96.10
2022-12-20T12:39:06.229Z,96.40
2022-12-20T12:41:38.997Z,96.00
2022-12-20T12:44:24.455Z,96.60
2022-12-20T12:46:55.096Z,96.60
2022-12-20T12:49:22.563Z,96.70
2022-12-20T12:51:50.777Z,96.60
2022-12-20T12:54:21.139Z,96.60
2022-12-20T12:56:48.935Z,96.50
2022-12-20T12:59:15.782Z,96.90
2022-12-20T13:01:48.253Z,97.50
2022-12-20T13:04:20.835Z,97.20
2022-12-20T13:06:47.413Z,97.50
2022-12-20T13:09:22.459Z,97.40
2022-12-20T13:11:55.512Z,97.90
2022-12-20T13:14:29.854Z,98.20
2022-12-20T13:17:24.104Z,98.10
2022-12-20T13:19:51.405Z,98.90
2022-12-20T13:22:17.985Z,98.80
2022-12-20T13:25:02.851Z,99.60
2022-12-20T13:27:39.467Z,99.10
2022-12-20T13:30:12.415Z,99.50
2022-12-20T13:32:48.059Z,99.90
2022-12-20T13:35:30.037Z,99.90
2022-12-20T13:38:25.766Z,99.90
2022-12-20T13:40:57.735Z,99.90
2022-12-20T13:43:42.061Z,99.90
2022-12-20T13:46:08.682Z,99.90
2022-12-20T13:48:38.283Z,99.90
2022-12-20T13:51:06.045Z,99.90
2022-12-20T13:53:32.700Z,99.90
2022-12-20T13:56:19.266Z,99.90
2022-12-20T13:58:46.097Z,99.90
2022-12-20T14:01:13.758Z,99.90
2022-12-20T14:03:41.959Z,99.90
2022-12-20T14:06:12.656Z,99.90
2022-12-20T14:08:46.866Z,99.90
2022-12-20T14:11:13.469Z,99.90
2022-12-20T14:13:40.469Z,99.90
2022-12-20T14:16:26.551Z,99.90
2022-12-20T14:19:04.058Z,99.90
2022-12-20T14:21:31.353Z,99.90
2022-12-20T14:23:59.303Z,99.90
2022-12-20T14:26:28.053Z,99.90
2022-12-20T14:28:56.058Z,99.90
2022-12-20T14:31:28.434Z,99.90
2022-12-20T14:34:14.108Z,99.60
2022-12-20T14:36:46.226Z,99.90
2022-12-20T14:39:39.086Z,99.90
2022-12-20T14:42:09.680Z,99.90
2022-12-20T14:44:36.285Z,99.90
2022-12-20T14:47:20.708Z,99.90
2022-12-20T14:49:55.617Z,99.90
2022-12-20T14:52:27.685Z,99.90
2022-12-20T14:55:10.788Z,99.90
2022-12-20T14:57:39.861Z,99.90
2022-12-20T15:00:13.447Z,99.90
2022-12-20T15:02:41.844Z,99.90
2022-12-20T15:05:09.722Z,99.90
2022-12-20T15:07:41.595Z,99.90
2022-12-20T15:10:08.308Z,99.90
2022-12-20T15:12:40.404Z,99.90
2022-12-20T15:15:28.646Z,99.90
2022-12-20T15:17:56.123Z,99.90
2022-12-20T15:20:22.740Z,99.90
2022-12-20T15:22:49.345Z,99.90
2022-12-20T15:25:16.957Z,99.90
2022-12-20T15:27:43.911Z,99.90
2022-12-20T15:30:13.958Z,99.90
2022-12-20T15:32:54.707Z,99.90
2022-12-20T15:35:22.465Z,99.90
2022-12-20T15:37:49.057Z,99.90
2022-12-20T15:40:15.656Z,99.90
2022-12-20T15:42:43.094Z,99.90
2022-12-20T15:45:16.048Z,99.90
2022-12-20T15:47:42.823Z,99.90
2022-12-20T15:50:11.472Z,99.90
2022-12-20T15:52:38.074Z,99.90
2022-12-20T15:55:04.859Z,99.90
2022-12-20T15:57:31.620Z,99.90
2022-12-20T16:00:01.190Z,99.90
2022-12-20T16:02:29.675Z,99.90
2022-12-20T16:04:56.749Z,99.90
2022-12-20T16:07:23.644Z,99.90
2022-12-20T16:09:50.329Z,99.90
2022-12-20T16:12:28.032Z,99.90
2022-12-20T16:14:55.255Z,99.90
2022-12-20T16:17:21.926Z,99.90
2022-12-20T16:19:48.600Z,99.90
2022-12-20T16:22:16.551Z,99.90
2022-12-20T16:24:43.569Z,99.90
2022-12-20T16:27:10.266Z,99.90
2022-12-20T16:29:37.119Z,99.90
2022-12-20T16:32:08.022Z,99.90
2022-12-20T16:34:34.642Z,99.90
2022-12-20T16:37:01.602Z,99.90
2022-12-20T16:39:28.535Z,99.90
2022-12-20T16:41:55.133Z,99.90
2022-12-20T16:44:22.959Z,99.90
2022-12-20T16:46:49.616Z,99.90
2022-12-20T16:49:20.452Z,99.90
2022-12-20T16:51:48.119Z,99.90
2022-12-20T16:54:23.021Z,99.90
2022-12-20T16:56:56.013Z,99.90
2022-12-20T16:59:23.665Z,99.90
2022-12-20T17:01:52.306Z,99.90
2022-12-20T17:04:21.898Z,99.90
2022-12-20T17:06:48.827Z,99.90
2022-12-20T17:09:18.433Z,99.90
2022-12-20T17:11:45.511Z,99.90
2022-12-20T17:14:13.275Z,99.90
2022-12-20T17:16:40.388Z,99.90
2022-12-20T17:19:07.132Z,99.90
2022-12-20T17:24:23.495Z,99.90
2022-12-20T17:26:50.484Z,99.90
2022-12-20T17:29:17.867Z,99.90
2022-12-20T17:31:46.363Z,99.90
2022-12-20T17:34:16.972Z,99.90
2022-12-20T17:36:43.793Z,99.90
2022-12-20T17:39:10.533Z,99.90
2022-12-20T17:41:37.213Z,99.90
2022-12-20T17:44:04.747Z,99.90
2022-12-20T17:46:31.596Z,99.90
2022-12-20T17:48:58.546Z,99.90
2022-12-20T17:51:29.154Z,99.90
2022-12-20T17:53:57.051Z,99.90
2022-12-20T17:56:24.626Z,99.90
2022-12-20T17:58:51.533Z,99.90
2022-12-20T18:01:21.345Z,99.90
2022-12-20T18:04:05.392Z,99.90
2022-12-20T18:06:33.427Z,99.90
2022-12-20T18:09:00.560Z,99.90
2022-12-20T18:11:28.282Z,99.90
2022-12-20T18:13:56.203Z,99.90
2022-12-20T18:16:27.078Z,99.90
2022-12-20T18:18:54.387Z,99.90
2022-12-20T18:21:21.706Z,99.90
2022-12-20T18:23:48.793Z,99.90
2022-12-20T18:26:17.301Z,99.90
2022-12-20T18:28:45.115Z,99.90
2022-12-20T18:31:13.088Z,99.90
2022-12-20T18:33:39.776Z,99.90
2022-12-20T18:36:08.257Z,99.90
2022-12-20T18:38:35.611Z,99.90
2022-12-20T18:41:03.613Z,99.90
2022-12-20T18:43:30.745Z,99.90
2022-12-20T18:46:02.822Z,99.90
2022-12-20T18:48:29.625Z,99.90
2022-12-20T18:50:56.397Z,99.90
2022-12-20T18:53:23.051Z,99.90
2022-12-20T18:55:49.654Z,99.90
2022-12-20T18:58:16.376Z,99.90
2022-12-20T19:00:43.193Z,99.90
2022-12-20T19:03:10.181Z,99.90
2022-12-20T19:05:36.936Z,99.90
2022-12-20T19:08:03.610Z,99.90
2022-12-20T19:10:33.439Z,99.90
2022-12-20T19:13:05.557Z,99.90
2022-12-20T19:15:32.647Z,99.90
2022-12-20T19:17:59.336Z,99.90
2022-12-20T19:20:26.021Z,99.90
2022-12-20T19:22:53.427Z,99.90
2022-12-20T19:25:21.188Z,99.90
2022-12-20T19:27:48.025Z,99.90
2022-12-20T19:30:14.697Z,99.90
2022-12-20T19:32:41.262Z,99.90
2022-12-20T19:35:37.464Z,99.90
2022-12-20T19:37:55.575Z,99.90
2022-12-20T19:40:22.145Z,99.90
2022-12-20T19:42:48.770Z,99.90
2022-12-20T19:45:15.464Z,99.90
2022-12-20T19:47:42.289Z,99.90
2022-12-20T19:50:09.146Z,99.90
2022-12-20T19:52:36.714Z,99.90
2022-12-20T19:55:03.389Z,99.90
2022-12-20T19:57:30.021Z,99.90
2022-12-20T19:59:56.622Z,99.90
2022-12-20T20:02:23.541Z,99.90
2022-12-20T20:04:50.296Z,99.90
2022-12-20T20:07:16.949Z,99.90
2022-12-20T20:09:43.515Z,99.90
2022-12-20T20:12:10.089Z,99.90
2022-12-20T20:14:36.731Z,99.90
2022-12-20T20:17:03.305Z,99.90
2022-12-20T20:19:29.869Z,99.90
2022-12-20T20:21:56.566Z,99.90
2022-12-20T20:24:23.287Z,99.90
2022-12-20T20:26:49.939Z,99.90
2022-12-20T20:29:16.549Z,99.90
2022-12-20T20:31:43.176Z,99.90
2022-12-20T20:34:09.866Z,99.90
2022-12-20T20:36:36.482Z,99.90
2022-12-20T20:39:03.148Z,99.90
2022-12-20T20:41:30.157Z,99.90
2022-12-20T20:43:56.737Z,99.90
2022-12-20T20:46:23.498Z,99.90
2022-12-20T20:48:50.153Z,99.90
2022-12-20T20:51:16.742Z,99.90
2022-12-20T20:53:43.500Z,99.90
2022-12-20T20:56:10.412Z,99.90
2022-12-20T20:58:37.088Z,99.90
2022-12-20T21:01:05.335Z,99.90
2022-12-20T21:03:32.177Z,99.90
2022-12-20T21:08:45.473Z,99.90
2022-12-20T21:11:12.409Z,99.90
2022-12-20T21:13:39.193Z,99.90
2022-12-20T21:16:13.556Z,99.90
2022-12-20T21:18:40.282Z,99.90
2022-12-20T21:21:11.278Z,99.90
2022-12-20T21:23:38.633Z,99.90
2022-12-20T21:26:05.361Z,99.90
2022-12-20T21:28:31.993Z,99.90
2022-12-20T21:31:02.460Z,99.90
2022-12-20T21:33:29.345Z,99.90
2022-12-20T21:36:02.800Z,99.90
2022-12-20T21:38:29.606Z,99.90
2022-12-20T21:41:03.170Z,99.90
2022-12-20T21:43:30.009Z,99.90
2022-12-20T21:45:56.776Z,99.90
2022-12-20T21:48:24.006Z,99.90
2022-12-20T21:51:03.932Z,99.90
2022-12-20T21:53:31.208Z,99.90
2022-12-20T21:56:00.165Z,99.90
2022-12-20T21:58:27.469Z,99.90
2022-12-20T22:00:55.283Z,99.90
2022-12-20T22:03:22.884Z,99.90
2022-12-20T22:05:50.512Z,99.90
2022-12-20T22:08:17.881Z,99.90
2022-12-20T22:10:44.872Z,99.90
2022-12-20T22:13:11.961Z,99.90
2022-12-20T22:15:38.950Z,99.90
2022-12-20T22:18:06.128Z,99.90
2022-12-20T22:20:33.118Z,99.90
2022-12-20T22:22:59.729Z,99.90
2022-12-20T22:25:26.569Z,99.90
2022-12-20T22:27:53.180Z,99.90
2022-12-20T22:30:19.787Z,99.90
2022-12-20T22:32:46.359Z,99.90
2022-12-20T22:35:16.440Z,99.90
2022-12-20T22:37:47.354Z,99.90
2022-12-20T22:40:13.931Z,99.90
2022-12-20T22:42:40.506Z,99.90
2022-12-20T22:45:07.674Z,99.90
2022-12-20T22:47:34.747Z,99.90
2022-12-20T22:50:01.445Z,99.90
2022-12-20T22:52:28.020Z,99.90
2022-12-20T22:54:54.618Z,99.90
2022-12-20T22:57:21.191Z,99.90
2022-12-20T22:59:47.767Z,99.90
2022-12-20T23:02:14.606Z,99.90
2022-12-20T23:04:41.411Z,99.90
2022-12-20T23:07:08.143Z,99.90
2022-12-20T23:09:34.732Z,99.90
2022-12-20T23:12:20.016Z,99.90
2022-12-20T23:15:05.076Z,99.90
2022-12-20T23:17:32.436Z,99.90
2022-12-20T23:20:17.742Z,99.90
2022-12-20T23:22:45.094Z,99.90
2022-12-20T23:25:16.152Z,99.90
2022-12-20T23:27:43.267Z,99.90
2022-12-20T23:30:11.036Z,99.90
2022-12-20T23:32:37.730Z,99.90
2022-12-20T23:35:11.961Z,99.90
2022-12-20T23:37:39.139Z,99.90
2022-12-20T23:40:09.746Z,99.90
2022-12-20T23:42:36.328Z,99.90
2022-12-20T23:45:03.081Z,99.90
2022-12-20T23:47:30.949Z,99.90
2022-12-20T23:49:57.516Z,99.90
2022-12-20T23:52:24.117Z,99.90
2022-12-20T23:54:50.827Z,99.90
2022-12-20T23:57:17.417Z,99.90
2022-12-20T23:59:43.978Z,99.90
